createdAt,value
2019-05-10T00:01:32.802Z,33.35
2019-05-10T00:04:22.087Z,37.78
2019-05-10T00:07:11.651Z,40.45
2019-05-10T00:09:42.829Z,35.55
2019-05-10T00:12:16.100Z,29.12
2019-05-10T00:14:49.403Z,24.07
2019-05-10T00:17:22.906Z,19.20
2019-05-10T00:19:54.938Z,18.77
2019-05-10T00:22:27.521Z,17.73
2019-05-10T00:25:04.772Z,16.60
2019-05-10T00:27:32.923Z,13.60
2019-05-10T00:30:07.294Z,13.05
2019-05-10T00:32:38.862Z,13.88
2019-05-10T00:35:10.869Z,12.30
2019-05-10T00:37:42.469Z,11.85
2019-05-10T00:40:14.468Z,11.68
2019-05-10T00:42:46.134Z,11.93
2019-05-10T00:45:17.802Z,11.70
2019-05-10T00:47:49.872Z,10.65
2019-05-10T00:50:22.062Z,9.93
2019-05-10T00:52:53.650Z,9.58
2019-05-10T00:55:25.720Z,9.93
2019-05-10T00:57:57.460Z,9.05
2019-05-10T01:00:29.474Z,8.65
2019-05-10T01:03:01.067Z,8.73
2019-05-10T01:05:32.951Z,8.80
2019-05-10T01:08:04.835Z,8.40
2019-05-10T01:10:36.653Z,8.98
2019-05-10T01:13:08.450Z,8.58
2019-05-10T01:15:41.811Z,8.00
2019-05-10T01:18:13.665Z,8.33
2019-05-10T01:20:45.504Z,8.80
2019-05-10T01:23:17.285Z,10.05
2019-05-10T01:25:49.429Z,14.28
2019-05-10T01:28:21.336Z,19.90
2019-05-10T01:30:53.742Z,36.73
2019-05-10T01:33:25.556Z,45.90
2019-05-10T01:35:57.454Z,51.02
2019-05-10T01:38:29.065Z,55.78
2019-05-10T01:41:00.695Z,52.37
2019-05-10T01:43:33.520Z,45.58
2019-05-10T01:46:05.193Z,36.83
2019-05-10T01:48:37.011Z,34.83
2019-05-10T01:51:08.818Z,32.10
2019-05-10T01:53:40.432Z,28.45
2019-05-10T01:56:12.426Z,23.60
2019-05-10T01:58:44.054Z,27.27
2019-05-10T02:01:16.368Z,30.17
2019-05-10T02:03:47.978Z,32.30
2019-05-10T02:06:19.961Z,34.13
2019-05-10T02:08:51.587Z,37.20
2019-05-10T02:11:23.481Z,47.13
2019-05-10T02:13:55.209Z,58.65
2019-05-10T02:16:26.995Z,63.87
2019-05-10T02:18:59.129Z,59.65
2019-05-10T02:21:30.820Z,56.18
2019-05-10T02:24:02.684Z,60.85
2019-05-10T02:26:34.510Z,76.22
2019-05-10T02:29:06.403Z,78.67
2019-05-10T02:31:38.763Z,70.08
2019-05-10T02:34:10.456Z,69.40
2019-05-10T02:36:42.264Z,68.20
2019-05-10T02:39:14.163Z,62.33
2019-05-10T02:41:45.870Z,56.23
2019-05-10T02:44:17.707Z,50.08
2019-05-10T02:46:49.414Z,48.70
2019-05-10T02:49:21.579Z,48.58
2019-05-10T02:51:53.513Z,36.25
2019-05-10T02:54:25.692Z,33.45
2019-05-10T02:56:58.599Z,30.37
2019-05-10T02:59:31.292Z,31.37
2019-05-10T03:02:06.000Z,40.67
2019-05-10T03:04:38.056Z,38.78
2019-05-10T03:07:09.665Z,40.40
2019-05-10T03:09:41.845Z,42.40
2019-05-10T03:12:27.069Z,43.10
2019-05-10T03:15:00.151Z,42.60
2019-05-10T03:17:31.681Z,55.25
2019-05-10T03:20:04.830Z,64.37
2019-05-10T03:22:43.919Z,65.52
2019-05-10T03:25:15.611Z,65.32
2019-05-10T03:27:47.617Z,85.30
2019-05-10T03:30:19.685Z,48.70
2019-05-10T03:32:51.833Z,38.63
2019-05-10T03:35:24.120Z,31.75
2019-05-10T03:37:56.157Z,24.90
2019-05-10T03:40:27.876Z,24.40
2019-05-10T03:42:59.697Z,24.50
2019-05-10T03:45:31.635Z,22.90
2019-05-10T03:48:03.541Z,23.47
2019-05-10T03:50:35.509Z,18.70
2019-05-10T03:53:07.345Z,20.70
2019-05-10T03:55:39.428Z,21.05
2019-05-10T03:58:11.078Z,24.35
2019-05-10T04:00:43.197Z,26.80
2019-05-10T04:03:15.416Z,25.17
2019-05-10T04:05:47.619Z,26.65
2019-05-10T04:08:19.439Z,20.75
2019-05-10T04:10:52.521Z,21.33
2019-05-10T04:13:24.159Z,20.80
2019-05-10T04:15:56.076Z,18.05
2019-05-10T04:18:27.794Z,19.57
2019-05-10T04:20:59.996Z,25.55
2019-05-10T04:23:31.514Z,20.72
2019-05-10T04:26:03.578Z,22.52
2019-05-10T04:28:36.971Z,20.85
2019-05-10T04:31:09.205Z,22.13
2019-05-10T04:33:42.144Z,20.12
2019-05-10T04:36:13.840Z,19.57
2019-05-10T04:38:45.548Z,17.35
2019-05-10T04:41:17.262Z,15.80
2019-05-10T04:43:49.168Z,14.60
2019-05-10T04:46:21.131Z,14.98
2019-05-10T04:48:52.880Z,18.37
2019-05-10T04:51:24.792Z,18.48
2019-05-10T04:53:56.596Z,23.55
2019-05-10T04:56:28.546Z,29.32
2019-05-10T04:59:00.328Z,26.80
2019-05-10T05:01:32.496Z,26.37
2019-05-10T05:06:35.692Z,22.95
2019-05-10T05:09:08.087Z,22.65
2019-05-10T05:11:39.692Z,25.25
2019-05-10T05:14:11.716Z,22.35
2019-05-10T05:16:43.747Z,25.35
2019-05-10T05:19:15.649Z,25.88
2019-05-10T05:21:47.471Z,24.10
2019-05-10T05:24:22.906Z,29.25
2019-05-10T05:26:52.526Z,31.12
2019-05-10T05:29:24.488Z,34.58
2019-05-10T05:32:01.221Z,35.95
2019-05-10T05:34:30.265Z,37.60
2019-05-10T05:37:01.908Z,34.73
2019-05-10T05:39:33.801Z,34.67
2019-05-10T05:42:05.435Z,28.85
2019-05-10T05:44:37.342Z,39.65
2019-05-10T05:47:09.242Z,39.78
2019-05-10T05:49:41.955Z,40.08
2019-05-10T05:52:13.807Z,34.58
2019-05-10T05:54:45.642Z,38.60
2019-05-10T05:57:22.042Z,39.73
2019-05-10T05:59:50.810Z,34.50
2019-05-10T06:02:22.683Z,32.33
2019-05-10T06:04:54.344Z,30.75
2019-05-10T06:07:31.117Z,26.35
2019-05-10T06:09:59.567Z,25.37
2019-05-10T06:12:31.472Z,27.15
2019-05-10T06:15:03.531Z,25.50
2019-05-10T06:20:08.241Z,10.00
2019-05-10T06:22:44.003Z,10.30
2019-05-10T06:25:13.400Z,10.08
2019-05-10T06:27:45.337Z,7.75
2019-05-10T06:30:17.331Z,8.28
2019-05-10T06:32:53.302Z,5.60
2019-05-10T06:35:22.402Z,6.22
2019-05-10T06:37:53.924Z,4.78
2019-05-10T06:40:35.755Z,4.58
2019-05-10T06:42:59.128Z,4.55
2019-05-10T06:45:31.194Z,4.03
2019-05-10T06:48:02.945Z,4.20
2019-05-10T06:50:36.445Z,4.65
2019-05-10T06:53:10.938Z,3.67
2019-05-10T06:55:41.292Z,4.83
2019-05-10T06:58:13.005Z,4.10
2019-05-10T07:00:47.366Z,3.77
2019-05-10T07:03:18.234Z,4.05
2019-05-10T07:05:49.980Z,3.45
2019-05-10T07:08:21.387Z,3.40
2019-05-10T07:10:53.535Z,3.33
2019-05-10T07:13:25.240Z,4.08
2019-05-10T07:15:57.018Z,3.42
2019-05-10T07:21:00.810Z,6.20
2019-05-10T07:23:32.932Z,12.58
2019-05-10T07:26:05.244Z,12.07
2019-05-10T07:28:37.505Z,13.93
2019-05-10T07:33:40.319Z,19.45
2019-05-10T07:36:15.236Z,19.62
2019-05-10T07:38:46.666Z,21.27
2019-05-10T07:41:19.345Z,27.73
2019-05-10T07:43:51.752Z,31.45
2019-05-10T07:48:54.115Z,28.15
2019-05-10T07:51:28.887Z,27.07
2019-05-10T07:54:04.478Z,25.92
2019-05-10T07:56:33.153Z,24.57
2019-05-10T07:59:05.175Z,20.50
2019-05-10T08:01:37.000Z,20.48
2019-05-10T08:04:10.022Z,19.95
2019-05-10T08:06:47.626Z,20.55
2019-05-10T08:09:15.606Z,20.08
2019-05-10T08:11:48.457Z,21.45
2019-05-10T08:14:20.381Z,20.57
2019-05-10T08:16:58.443Z,18.98
2019-05-10T08:19:25.646Z,17.70
2019-05-10T08:22:01.696Z,17.27
2019-05-10T08:24:32.808Z,16.67
2019-05-10T08:27:11.469Z,17.52
2019-05-10T08:29:39.228Z,24.07
2019-05-10T08:32:12.858Z,25.35
2019-05-10T08:34:52.163Z,21.10
2019-05-10T08:37:30.385Z,18.20
2019-05-10T08:39:55.781Z,17.00
2019-05-10T08:42:37.627Z,16.90
2019-05-10T08:45:04.121Z,15.80
2019-05-10T08:47:32.303Z,14.20
2019-05-10T08:50:18.498Z,14.03
2019-05-10T08:52:37.843Z,17.70
2019-05-10T08:55:12.129Z,13.03
2019-05-10T08:57:48.021Z,12.33
2019-05-10T09:00:17.396Z,13.43
2019-05-10T09:02:48.975Z,14.60
2019-05-10T09:05:28.804Z,13.35
2019-05-10T09:07:54.842Z,11.97
2019-05-10T09:10:26.703Z,11.38
2019-05-10T09:12:58.443Z,10.65
2019-05-10T09:15:30.251Z,9.50
2019-05-10T09:18:04.306Z,8.53
2019-05-10T09:20:35.600Z,7.83
2019-05-10T09:23:08.532Z,7.47
2019-05-10T09:25:42.630Z,8.18
2019-05-10T09:28:16.742Z,10.82
2019-05-10T09:30:59.365Z,11.12
2019-05-10T09:33:22.384Z,10.10
2019-05-10T09:35:55.208Z,12.47
2019-05-10T09:38:28.677Z,9.95
2019-05-10T09:41:02.442Z,9.90
2019-05-10T09:43:33.520Z,8.25
2019-05-10T09:46:05.237Z,7.20
2019-05-10T09:48:37.009Z,6.58
2019-05-10T09:51:09.063Z,4.37
2019-05-10T09:53:40.623Z,4.80
2019-05-10T09:56:12.327Z,7.10
2019-05-10T09:58:44.025Z,7.42
2019-05-10T10:01:20.766Z,6.30
2019-05-10T10:03:49.495Z,7.35
2019-05-10T10:06:21.768Z,7.58
2019-05-10T10:11:27.637Z,6.12
2019-05-10T10:14:01.748Z,5.65
2019-05-10T10:16:31.688Z,4.70
2019-05-10T10:19:04.353Z,5.35
2019-05-10T10:21:38.939Z,4.70
2019-05-10T10:24:15.660Z,3.35
2019-05-10T10:26:43.023Z,3.33
2019-05-10T10:29:14.543Z,3.47
2019-05-10T10:31:55.314Z,3.50
2019-05-10T10:34:19.806Z,3.30
2019-05-10T10:36:51.761Z,2.50
2019-05-10T10:39:24.351Z,2.80
2019-05-10T10:41:57.091Z,2.58
2019-05-10T10:44:28.879Z,2.70
2019-05-10T10:47:00.534Z,2.80
2019-05-10T10:49:32.267Z,2.15
2019-05-10T10:52:05.675Z,2.30
2019-05-10T10:54:39.816Z,2.70
2019-05-10T10:57:10.564Z,2.10
2019-05-10T10:59:42.115Z,2.52
2019-05-10T11:02:31.575Z,1.82
2019-05-10T11:04:49.027Z,2.00
2019-05-10T11:07:21.145Z,2.00
2019-05-10T11:09:53.714Z,2.30
2019-05-10T11:12:26.196Z,2.17
2019-05-10T11:14:58.136Z,2.10
2019-05-10T11:20:02.394Z,1.67
2019-05-10T11:22:34.049Z,1.57
2019-05-10T11:25:09.760Z,1.70
2019-05-10T11:27:41.548Z,2.00
2019-05-10T11:30:14.242Z,1.65
2019-05-10T11:32:46.296Z,1.47
2019-05-10T11:37:51.774Z,1.32
2019-05-10T11:40:30.871Z,2.00
2019-05-10T11:42:56.923Z,2.47
2019-05-10T11:45:34.376Z,3.15
2019-05-10T11:48:02.322Z,9.48
2019-05-10T11:50:35.578Z,13.25
2019-05-10T11:53:15.512Z,16.25
2019-05-10T11:55:43.529Z,10.72
2019-05-10T11:58:14.123Z,11.93
2019-05-10T12:00:46.200Z,10.48
2019-05-10T12:05:53.179Z,8.15
2019-05-10T12:08:24.042Z,7.58
2019-05-10T12:13:32.506Z,5.40
2019-05-10T12:16:02.914Z,5.30
2019-05-10T12:18:36.317Z,4.17
2019-05-10T12:21:11.126Z,3.62
2019-05-10T12:23:50.270Z,3.90
2019-05-10T12:26:06.386Z,7.80
2019-05-10T12:27:12.617Z,2.60
2019-05-10T12:28:51.051Z,2.92
2019-05-10T12:31:23.305Z,3.30
2019-05-10T12:36:27.705Z,2.52
2019-05-10T12:39:01.649Z,3.17
2019-05-10T12:41:39.976Z,3.90
2019-05-10T12:44:08.000Z,3.70
2019-05-10T12:46:42.061Z,3.90
2019-05-10T12:49:12.931Z,3.92
2019-05-10T12:51:45.117Z,4.37
2019-05-10T12:54:18.492Z,4.00
2019-05-10T12:56:50.774Z,3.62
2019-05-10T12:59:22.557Z,5.05
2019-05-10T13:01:54.324Z,3.90
2019-05-10T13:04:39.692Z,4.80
2019-05-10T13:06:59.255Z,4.47
2019-05-10T13:09:40.113Z,3.45
2019-05-10T13:12:06.330Z,3.77
2019-05-10T13:14:40.339Z,2.60
2019-05-10T13:17:12.385Z,2.92
2019-05-10T13:19:44.380Z,3.12
2019-05-10T13:22:16.432Z,5.03
2019-05-10T13:24:48.400Z,6.78
2019-05-10T13:27:20.432Z,8.08
2019-05-10T13:29:53.536Z,12.93
2019-05-10T13:32:27.087Z,17.45
2019-05-10T13:34:58.703Z,9.40
2019-05-10T13:37:30.502Z,13.48
2019-05-10T13:40:05.265Z,14.25
2019-05-10T13:42:43.531Z,15.53
2019-05-10T13:45:09.450Z,15.10
2019-05-10T13:47:41.234Z,13.53
2019-05-10T13:50:13.665Z,12.18
2019-05-10T13:52:45.654Z,8.78
2019-05-10T13:55:17.353Z,7.42
2019-05-10T13:57:49.471Z,7.30
2019-05-10T14:00:21.380Z,6.95
2019-05-10T14:02:53.323Z,6.10
2019-05-10T14:05:25.047Z,6.53
2019-05-10T14:07:56.865Z,6.03
2019-05-10T14:10:29.074Z,5.40
2019-05-10T14:13:02.643Z,4.65
2019-05-10T14:15:34.619Z,4.30
2019-05-10T14:18:06.273Z,4.28
2019-05-10T14:20:38.266Z,3.62
2019-05-10T14:23:10.119Z,6.92
2019-05-10T14:25:41.954Z,5.53
2019-05-10T14:28:15.742Z,5.70
2019-05-10T14:30:57.257Z,5.25
2019-05-10T14:33:21.526Z,5.33
2019-05-10T14:35:55.289Z,4.60
2019-05-10T14:38:27.602Z,4.65
2019-05-10T14:41:03.861Z,4.30
2019-05-10T14:43:33.683Z,4.60
2019-05-10T14:46:13.115Z,5.05
2019-05-10T14:48:38.977Z,4.92
2019-05-10T14:51:13.628Z,5.83
2019-05-10T14:53:44.704Z,4.58
2019-05-10T14:56:16.703Z,3.98
2019-05-10T14:58:48.326Z,4.55
2019-05-10T15:01:20.046Z,4.90
2019-05-10T15:03:52.051Z,4.55
2019-05-10T15:06:23.797Z,4.77
2019-05-10T15:08:55.424Z,5.90
2019-05-10T15:11:31.713Z,4.00
2019-05-10T15:14:00.517Z,4.17
2019-05-10T15:16:32.453Z,3.87
2019-05-10T15:19:04.126Z,4.22
2019-05-10T15:21:36.452Z,4.30
2019-05-10T15:24:08.560Z,3.37
2019-05-10T15:26:43.894Z,3.77
2019-05-10T15:29:15.013Z,3.90
2019-05-10T15:31:47.315Z,4.00
2019-05-10T15:34:19.332Z,4.47
2019-05-10T15:36:51.145Z,3.90
2019-05-10T15:39:28.233Z,4.45
2019-05-10T15:41:59.247Z,4.78
2019-05-10T15:44:33.184Z,5.90
2019-05-10T15:47:03.406Z,5.62
2019-05-10T15:49:35.113Z,5.95
2019-05-10T15:52:17.438Z,5.47
2019-05-10T15:57:19.988Z,6.22
2019-05-10T15:59:23.826Z,5.92
2019-05-10T15:59:50.583Z,5.22
2019-05-10T16:02:21.312Z,4.92
2019-05-10T16:04:53.206Z,4.85
2019-05-10T16:07:24.954Z,4.97
2019-05-10T16:09:57.091Z,4.95
2019-05-10T16:12:28.782Z,6.10
2019-05-10T16:15:00.713Z,5.40
2019-05-10T16:17:33.705Z,6.25
2019-05-10T16:20:06.060Z,6.42
2019-05-10T16:22:37.637Z,7.05
2019-05-10T16:25:10.116Z,8.60
2019-05-10T16:27:45.095Z,9.23
2019-05-10T16:30:20.166Z,5.30
2019-05-10T16:32:50.846Z,5.70
2019-05-10T16:35:22.464Z,4.72
2019-05-10T16:37:54.426Z,6.00
2019-05-10T16:40:25.986Z,5.72
2019-05-10T16:42:58.170Z,6.40
2019-05-10T16:45:29.954Z,6.65
2019-05-10T16:48:05.708Z,8.33
2019-05-10T16:50:35.775Z,8.55
2019-05-10T16:53:08.215Z,7.20
2019-05-10T16:55:42.571Z,6.03
2019-05-10T16:58:15.119Z,6.60
2019-05-10T17:00:48.082Z,6.58
2019-05-10T17:03:20.664Z,6.22
2019-05-10T17:08:25.167Z,7.95
2019-05-10T17:10:56.897Z,6.55
2019-05-10T17:13:28.657Z,6.60
2019-05-10T17:16:00.437Z,6.33
2019-05-10T17:18:32.336Z,5.47
2019-05-10T17:21:04.087Z,7.08
2019-05-10T17:23:35.892Z,9.05
2019-05-10T17:26:08.194Z,8.60
2019-05-10T17:28:39.943Z,9.33
2019-05-10T17:31:11.994Z,11.70
2019-05-10T17:33:44.379Z,6.58
2019-05-10T17:36:19.859Z,5.50
2019-05-10T17:38:53.524Z,8.88
2019-05-10T17:41:24.727Z,6.00
2019-05-10T17:43:56.608Z,6.50
2019-05-10T17:46:28.165Z,5.85
2019-05-10T17:49:00.271Z,8.15
2019-05-10T17:51:32.189Z,6.97
2019-05-10T17:54:04.169Z,7.58
2019-05-10T17:56:39.068Z,8.23
2019-05-10T17:59:11.988Z,7.60
2019-05-10T18:01:42.753Z,13.38
2019-05-10T18:04:14.903Z,10.05
2019-05-10T18:06:46.841Z,9.85
2019-05-10T18:09:18.498Z,14.53
2019-05-10T18:11:50.410Z,13.25
2019-05-10T18:14:22.354Z,13.58
2019-05-10T18:16:54.002Z,8.70
2019-05-10T18:19:26.521Z,9.40
2019-05-10T18:22:00.889Z,8.75
2019-05-10T18:24:36.400Z,9.55
2019-05-10T18:27:05.584Z,9.85
2019-05-10T18:29:37.601Z,16.80
2019-05-10T18:32:11.101Z,20.70
2019-05-10T18:34:47.104Z,24.40
2019-05-10T18:37:21.804Z,14.87
2019-05-10T18:39:52.855Z,14.55
2019-05-10T18:42:27.715Z,16.37
2019-05-10T18:44:59.004Z,11.88
2019-05-10T18:47:31.352Z,11.88
2019-05-10T18:50:03.515Z,13.28
2019-05-10T18:52:35.449Z,15.10
2019-05-10T18:55:07.437Z,19.10
2019-05-10T18:57:39.319Z,15.32
2019-05-10T19:00:12.203Z,16.52
2019-05-10T19:02:44.045Z,13.38
2019-05-10T19:05:16.117Z,13.68
2019-05-10T19:08:01.470Z,16.07
2019-05-10T19:10:21.514Z,16.35
2019-05-10T19:13:00.670Z,16.40
2019-05-10T19:15:26.617Z,16.57
2019-05-10T19:17:58.416Z,17.37
2019-05-10T19:20:30.588Z,19.85
2019-05-10T19:23:05.429Z,19.65
2019-05-10T19:25:37.811Z,20.80
2019-05-10T19:28:09.578Z,21.80
2019-05-10T19:30:41.753Z,22.60
2019-05-10T19:33:13.783Z,22.42
2019-05-10T19:35:46.162Z,23.25
2019-05-10T19:38:17.969Z,23.90
2019-05-10T19:40:49.929Z,23.92
2019-05-10T19:43:23.820Z,23.87
2019-05-10T19:45:57.335Z,24.10
2019-05-10T19:48:34.796Z,25.68
2019-05-10T19:51:08.612Z,24.27
2019-05-10T19:53:42.071Z,23.50
2019-05-10T19:56:09.892Z,27.45
2019-05-10T19:58:41.870Z,23.30
2019-05-10T20:01:13.750Z,21.90
2019-05-10T20:03:45.493Z,23.38
2019-05-10T20:06:17.646Z,20.90
2019-05-10T20:08:49.788Z,20.25
2019-05-10T20:11:21.706Z,20.48
2019-05-10T20:13:53.541Z,19.70
2019-05-10T20:16:25.396Z,21.37
2019-05-10T20:18:57.048Z,18.00
2019-05-10T20:21:29.322Z,13.08
2019-05-10T20:24:01.022Z,12.47
2019-05-10T20:26:32.926Z,13.28
2019-05-10T20:29:04.505Z,13.70
2019-05-10T20:31:36.449Z,14.18
2019-05-10T20:34:08.521Z,12.88
2019-05-10T20:36:40.529Z,14.53
2019-05-10T20:39:12.558Z,15.63
2019-05-10T20:41:44.750Z,15.53
2019-05-10T20:44:18.121Z,15.05
2019-05-10T20:46:49.872Z,16.65
2019-05-10T20:49:21.593Z,18.40
2019-05-10T20:51:53.440Z,16.93
2019-05-10T20:54:25.040Z,18.40
2019-05-10T20:56:57.153Z,17.80
2019-05-10T20:59:29.780Z,18.05
2019-05-10T21:02:01.579Z,16.37
2019-05-10T21:04:33.435Z,14.38
2019-05-10T21:07:05.579Z,12.85
2019-05-10T21:09:38.464Z,14.70
2019-05-10T21:12:10.746Z,17.52
2019-05-10T21:14:42.394Z,18.20
2019-05-10T21:17:14.309Z,14.28
2019-05-10T21:19:45.895Z,15.85
2019-05-10T21:22:17.758Z,15.63
2019-05-10T21:24:49.443Z,13.55
2019-05-10T21:27:21.404Z,14.18
2019-05-10T21:29:52.929Z,13.58
2019-05-10T21:32:24.886Z,15.32
2019-05-10T21:34:57.002Z,14.70
2019-05-10T21:37:28.917Z,12.03
2019-05-10T21:40:00.780Z,13.35
2019-05-10T21:42:32.843Z,13.38
2019-05-10T21:45:05.105Z,13.88
2019-05-10T21:47:50.722Z,12.73
2019-05-10T21:50:10.593Z,13.00
2019-05-10T21:52:42.226Z,13.15
2019-05-10T21:55:14.522Z,14.45
2019-05-10T21:57:46.259Z,14.55
2019-05-10T22:00:20.052Z,15.55
2019-05-10T22:02:53.183Z,15.48
2019-05-10T22:05:25.315Z,17.15
2019-05-10T22:07:57.284Z,16.77
2019-05-10T22:10:29.391Z,16.90
2019-05-10T22:13:01.097Z,17.90
2019-05-10T22:15:32.917Z,17.65
2019-05-10T22:18:04.851Z,19.10
2019-05-10T22:20:36.792Z,18.40
2019-05-10T22:23:08.474Z,19.05
2019-05-10T22:25:40.324Z,17.37
2019-05-10T22:28:12.159Z,16.40
2019-05-10T22:30:44.471Z,17.98
2019-05-10T22:33:16.189Z,16.65
2019-05-10T22:35:48.293Z,18.45
2019-05-10T22:38:20.128Z,18.82
2019-05-10T22:40:52.015Z,20.30
2019-05-10T22:43:23.952Z,19.73
2019-05-10T22:45:55.792Z,20.92
2019-05-10T22:48:27.475Z,20.40
2019-05-10T22:50:59.347Z,20.92
2019-05-10T22:53:31.214Z,20.60
2019-05-10T22:56:02.834Z,20.37
2019-05-10T22:58:34.805Z,21.37
2019-05-10T23:01:06.853Z,19.73
2019-05-10T23:03:38.761Z,19.32
2019-05-10T23:06:10.369Z,17.73
2019-05-10T23:08:42.603Z,16.67
2019-05-10T23:11:14.396Z,16.82
2019-05-10T23:13:46.272Z,17.00
2019-05-10T23:16:17.868Z,16.87
2019-05-10T23:18:49.707Z,17.15
2019-05-10T23:21:21.326Z,17.90
2019-05-10T23:23:53.071Z,18.43
2019-05-10T23:26:24.843Z,17.23
2019-05-10T23:28:56.801Z,16.05
2019-05-10T23:31:28.414Z,15.15
2019-05-10T23:34:00.093Z,15.10
2019-05-10T23:36:31.689Z,14.90
2019-05-10T23:39:06.359Z,13.55
2019-05-10T23:41:37.957Z,14.83
2019-05-10T23:44:09.696Z,13.33
2019-05-10T23:46:41.481Z,13.80
2019-05-10T23:49:13.371Z,14.03
2019-05-10T23:51:45.092Z,13.45
2019-05-10T23:54:16.947Z,12.33
2019-05-10T23:56:49.015Z,12.60
2019-05-10T23:59:21.001Z,13.00
